createdAt,value
2022-09-23T00:00:16.837Z,77.53
2022-09-23T00:01:17.110Z,77.53
2022-09-23T00:02:17.144Z,77.64
2022-09-23T00:03:17.269Z,77.64
2022-09-23T00:04:17.426Z,77.64
2022-09-23T00:05:16.562Z,77.64
2022-09-23T00:06:16.762Z,77.84
2022-09-23T00:07:16.946Z,77.84
2022-09-23T00:08:17.057Z,77.84
2022-09-23T00:09:17.229Z,77.94
2022-09-23T00:10:17.338Z,78.15
2022-09-23T00:11:16.452Z,78.35
2022-09-23T00:12:16.620Z,78.35
2022-09-23T00:13:16.788Z,78.35
2022-09-23T00:14:16.908Z,78.35
2022-09-23T00:15:17.079Z,78.35
2022-09-23T00:16:17.307Z,78.45
2022-09-23T00:17:17.376Z,78.80
2022-09-23T00:18:16.534Z,79.00
2022-09-23T00:19:16.876Z,79.21
2022-09-23T00:20:16.856Z,79.31
2022-09-23T00:21:17.014Z,79.41
2022-09-23T00:22:17.167Z,79.41
2022-09-23T00:23:17.344Z,79.41
2022-09-23T00:24:17.544Z,79.52
2022-09-23T00:25:16.648Z,79.52
2022-09-23T00:26:16.811Z,79.62
2022-09-23T00:27:16.971Z,79.72
2022-09-23T00:28:17.130Z,79.82
2022-09-23T00:29:17.328Z,79.72
2022-09-23T00:30:16.913Z,79.72
2022-09-23T00:31:16.661Z,79.52
2022-09-23T00:32:16.770Z,79.52
2022-09-23T00:33:16.940Z,79.52
2022-09-23T00:34:17.112Z,79.52
2022-09-23T00:35:16.239Z,79.41
2022-09-23T00:36:16.418Z,79.41
2022-09-23T00:37:16.549Z,79.62
2022-09-23T00:38:16.741Z,79.62
2022-09-23T00:39:16.894Z,79.62
2022-09-23T00:40:17.130Z,79.82
2022-09-23T00:41:17.254Z,79.72
2022-09-23T00:42:16.341Z,79.72
2022-09-23T00:43:16.501Z,79.93
2022-09-23T00:44:16.656Z,80.03
2022-09-23T00:45:16.797Z,80.03
2022-09-23T00:46:16.995Z,80.03
2022-09-23T00:47:17.070Z,80.03
2022-09-23T00:48:17.263Z,80.23
2022-09-23T00:49:16.429Z,80.27
2022-09-23T00:50:16.422Z,80.47
2022-09-23T00:51:16.544Z,80.37
2022-09-23T00:52:16.751Z,80.47
2022-09-23T00:53:16.853Z,80.58
2022-09-23T00:54:16.941Z,80.58
2022-09-23T00:55:16.154Z,80.37
2022-09-23T00:56:16.322Z,80.27
2022-09-23T00:57:16.492Z,80.23
2022-09-23T00:58:16.653Z,80.13
2022-09-23T00:59:17.737Z,80.17
2022-09-23T01:00:15.913Z,80.03
2022-09-23T01:01:16.142Z,80.17
2022-09-23T01:02:16.307Z,80.27
2022-09-23T01:03:17.910Z,80.37
2022-09-23T01:04:16.628Z,80.47
2022-09-23T01:05:16.756Z,80.58
2022-09-23T01:06:15.912Z,80.58
2022-09-23T01:07:16.068Z,80.58
2022-09-23T01:08:16.252Z,80.68
2022-09-23T01:09:16.412Z,80.68
2022-09-23T01:10:16.643Z,80.88
2022-09-23T01:11:15.738Z,81.09
2022-09-23T01:12:15.939Z,81.09
2022-09-23T01:13:16.109Z,81.09
2022-09-23T01:14:16.252Z,81.20
2022-09-23T01:15:16.394Z,81.20
2022-09-23T01:16:16.713Z,81.29
2022-09-23T01:17:15.692Z,81.40
2022-09-23T01:18:15.868Z,81.54
2022-09-23T01:19:16.079Z,81.64
2022-09-23T01:20:16.247Z,81.74
2022-09-23T01:21:16.403Z,81.74
2022-09-23T01:22:15.723Z,81.71
2022-09-23T01:23:15.677Z,81.60
2022-09-23T01:24:15.852Z,81.60
2022-09-23T01:25:16.055Z,81.60
2022-09-23T01:26:16.183Z,81.74
2022-09-23T01:27:16.507Z,81.81
2022-09-23T01:28:15.506Z,81.74
2022-09-23T01:29:15.685Z,81.85
2022-09-23T01:30:15.849Z,81.95
2022-09-23T01:31:16.022Z,82.05
2022-09-23T01:32:16.175Z,82.05
2022-09-23T01:33:16.452Z,82.15
2022-09-23T01:34:15.473Z,82.15
2022-09-23T01:35:15.656Z,82.15
2022-09-23T01:36:15.813Z,82.15
2022-09-23T01:37:15.482Z,82.15
2022-09-23T01:38:15.675Z,82.26
2022-09-23T01:39:15.864Z,82.15
2022-09-23T01:40:16.063Z,82.15
2022-09-23T01:41:16.186Z,82.05
2022-09-23T01:42:16.354Z,81.85
2022-09-23T01:43:15.505Z,81.85
2022-09-23T01:44:15.665Z,81.95
2022-09-23T01:45:15.866Z,81.95
2022-09-23T01:46:16.008Z,81.85
2022-09-23T01:47:15.553Z,81.95
2022-09-23T01:48:15.771Z,82.05
2022-09-23T01:49:15.928Z,82.05
2022-09-23T01:50:16.096Z,81.95
2022-09-23T01:51:15.287Z,81.85
2022-09-23T01:52:15.463Z,81.85
2022-09-23T01:53:15.668Z,81.85
2022-09-23T01:54:15.906Z,81.85
2022-09-23T01:55:16.087Z,81.74
2022-09-23T01:56:15.258Z,81.85
2022-09-23T01:57:15.408Z,81.95
2022-09-23T01:58:16.641Z,81.85
2022-09-23T01:59:15.789Z,81.85
2022-09-23T02:00:15.968Z,81.95
2022-09-23T02:01:15.221Z,82.15
2022-09-23T02:02:15.444Z,82.05
2022-09-23T02:03:15.515Z,82.05
2022-09-23T02:04:15.713Z,82.05
2022-09-23T02:05:15.880Z,82.26
2022-09-23T02:06:15.005Z,82.26
2022-09-23T02:07:15.193Z,82.26
2022-09-23T02:08:15.396Z,82.26
2022-09-23T02:09:15.518Z,82.15
2022-09-23T02:10:15.676Z,82.26
2022-09-23T02:11:14.838Z,82.26
2022-09-23T02:12:14.991Z,82.26
2022-09-23T02:13:15.177Z,82.36
2022-09-23T02:14:15.391Z,82.50
2022-09-23T02:15:15.558Z,82.36
2022-09-23T02:16:15.840Z,82.26
2022-09-23T02:17:15.966Z,82.26
2022-09-23T02:18:15.107Z,82.36
2022-09-23T02:19:15.286Z,82.40
2022-09-23T02:20:15.527Z,82.60
2022-09-23T02:21:15.627Z,82.91
2022-09-23T02:22:15.806Z,82.91
2022-09-23T02:23:14.972Z,83.12
2022-09-23T02:24:15.136Z,83.32
2022-09-23T02:25:15.357Z,83.42
2022-09-23T02:26:15.698Z,83.67
2022-09-23T02:27:14.680Z,83.87
2022-09-23T02:28:14.859Z,84.08
2022-09-23T02:29:15.047Z,84.18
2022-09-23T02:30:15.251Z,84.28
2022-09-23T02:31:15.428Z,84.39
2022-09-23T02:32:14.702Z,84.39
2022-09-23T02:33:14.771Z,84.39
2022-09-23T02:34:14.975Z,84.39
2022-09-23T02:35:15.159Z,84.28
2022-09-23T02:36:15.318Z,84.08
2022-09-23T02:37:14.478Z,83.98
2022-09-23T02:38:14.807Z,83.87
2022-09-23T02:39:14.839Z,83.87
2022-09-23T02:40:15.097Z,83.98
2022-09-23T02:41:15.201Z,84.08
2022-09-23T02:42:15.376Z,84.08
2022-09-23T02:43:14.508Z,83.87
2022-09-23T02:44:14.743Z,83.87
2022-09-23T02:45:14.848Z,83.87
2022-09-23T02:46:15.084Z,83.87
2022-09-23T02:47:16.161Z,83.87
2022-09-23T02:48:14.369Z,83.87
2022-09-23T02:49:14.505Z,83.87
2022-09-23T02:50:14.748Z,83.98
2022-09-23T02:51:14.889Z,84.18
2022-09-23T02:52:14.398Z,84.42
2022-09-23T02:53:14.616Z,84.53
2022-09-23T02:54:14.773Z,84.63
2022-09-23T02:55:14.958Z,84.63
2022-09-23T02:56:15.182Z,84.53
2022-09-23T02:57:17.796Z,84.53
2022-09-23T02:58:14.509Z,84.63
2022-09-23T02:59:14.731Z,84.63
2022-09-23T03:00:14.929Z,84.63
2022-09-23T03:01:15.178Z,84.74
2022-09-23T03:02:14.467Z,84.94
2022-09-23T03:03:14.481Z,85.04
2022-09-23T03:04:14.669Z,85.04
2022-09-23T03:05:20.081Z,85.04
2022-09-23T03:06:15.071Z,85.04
2022-09-23T03:07:14.251Z,85.14
2022-09-23T03:08:14.438Z,85.04
2022-09-23T03:09:14.590Z,85.25
2022-09-23T03:10:14.769Z,85.28
2022-09-23T03:11:14.985Z,85.46
2022-09-23T03:12:14.097Z,85.60
2022-09-23T03:13:14.142Z,85.60
2022-09-23T03:14:14.305Z,85.60
2022-09-23T03:15:14.493Z,85.70
2022-09-23T03:16:14.754Z,85.80
2022-09-23T03:17:14.863Z,85.90
2022-09-23T03:18:14.021Z,86.00
2022-09-23T03:19:14.241Z,86.11
2022-09-23T03:20:14.420Z,86.46
2022-09-23T03:21:14.611Z,86.66
2022-09-23T03:22:14.786Z,86.77
2022-09-23T03:23:13.915Z,86.77
2022-09-23T03:24:15.081Z,86.77
2022-09-23T03:25:14.384Z,86.77
2022-09-23T03:26:14.492Z,86.77
2022-09-23T03:27:14.702Z,86.66
2022-09-23T03:28:13.882Z,86.77
2022-09-23T03:29:14.035Z,86.77
2022-09-23T03:30:14.224Z,86.87
2022-09-23T03:31:14.669Z,86.77
2022-09-23T03:32:14.653Z,86.77
2022-09-23T03:33:14.824Z,86.77
2022-09-23T03:34:13.980Z,86.87
2022-09-23T03:35:14.182Z,86.87
2022-09-23T03:36:14.405Z,86.97
2022-09-23T03:37:13.802Z,87.07
2022-09-23T03:38:13.981Z,87.18
2022-09-23T03:39:14.194Z,87.28
2022-09-23T03:40:14.415Z,87.38
2022-09-23T03:41:14.558Z,87.38
2022-09-23T03:42:13.692Z,87.38
2022-09-23T03:43:14.090Z,87.38
2022-09-23T03:44:14.044Z,87.49
2022-09-23T03:45:14.225Z,87.38
2022-09-23T03:46:14.678Z,87.38
2022-09-23T03:47:14.535Z,87.28
2022-09-23T03:48:13.764Z,87.28
2022-09-23T03:49:13.992Z,87.38
2022-09-23T03:50:14.144Z,87.42
2022-09-23T03:51:14.332Z,87.52
2022-09-23T03:52:13.462Z,87.38
2022-09-23T03:53:13.663Z,87.28
2022-09-23T03:54:13.862Z,87.38
2022-09-23T03:55:14.124Z,87.38
2022-09-23T03:56:14.239Z,87.52
2022-09-23T03:57:13.481Z,87.63
2022-09-23T03:58:13.671Z,87.73
2022-09-23T03:59:13.872Z,87.84
2022-09-23T04:00:14.021Z,87.94
2022-09-23T04:01:14.266Z,87.94
2022-09-23T04:02:13.449Z,87.94
2022-09-23T04:03:13.528Z,87.84
2022-09-23T04:04:13.763Z,87.94
2022-09-23T04:05:13.969Z,87.94
2022-09-23T04:06:14.077Z,88.04
2022-09-23T04:07:13.283Z,88.04
2022-09-23T04:08:13.417Z,88.04
2022-09-23T04:09:13.590Z,88.04
2022-09-23T04:10:13.806Z,88.04
2022-09-23T04:11:14.049Z,88.04
2022-09-23T04:12:14.204Z,88.04
2022-09-23T04:13:13.331Z,88.04
2022-09-23T04:14:13.504Z,87.94
2022-09-23T04:15:14.868Z,87.94
2022-09-23T04:16:13.912Z,87.94
2022-09-23T04:17:15.029Z,87.94
2022-09-23T04:18:13.807Z,88.04
2022-09-23T04:19:13.621Z,87.94
2022-09-23T04:20:13.575Z,88.04
2022-09-23T04:21:13.186Z,88.04
2022-09-23T04:22:13.181Z,88.04
2022-09-23T04:23:13.358Z,88.04
2022-09-23T04:24:15.684Z,88.14
2022-09-23T04:25:13.776Z,88.04
2022-09-23T04:26:13.954Z,88.04
2022-09-23T04:27:13.228Z,88.04
2022-09-23T04:28:13.344Z,87.94
2022-09-23T04:29:13.519Z,87.94
2022-09-23T04:30:13.749Z,87.94
2022-09-23T04:31:13.939Z,88.04
2022-09-23T04:32:13.008Z,87.94
2022-09-23T04:33:13.202Z,87.84
2022-09-23T04:34:13.375Z,87.84
2022-09-23T04:35:13.588Z,87.73
2022-09-23T04:36:13.817Z,87.94
2022-09-23T04:37:12.901Z,87.94
2022-09-23T04:38:13.111Z,87.94
2022-09-23T04:39:13.278Z,87.84
2022-09-23T04:40:13.557Z,87.63
2022-09-23T04:41:13.668Z,87.63
2022-09-23T04:42:13.287Z,87.63
2022-09-23T04:43:13.689Z,87.52
2022-09-23T04:44:13.178Z,87.52
2022-09-23T04:45:13.367Z,87.52
2022-09-23T04:46:13.601Z,87.63
2022-09-23T04:47:13.825Z,87.73
2022-09-23T04:48:12.887Z,87.77
2022-09-23T04:49:13.085Z,87.87
2022-09-23T04:50:13.284Z,87.87
2022-09-23T04:51:15.517Z,87.87
2022-09-23T04:52:13.767Z,87.87
2022-09-23T04:53:12.864Z,87.87
2022-09-23T04:54:13.243Z,87.87
2022-09-23T04:55:13.234Z,87.87
2022-09-23T04:56:14.431Z,87.87
2022-09-23T04:57:13.677Z,87.98
2022-09-23T04:58:12.993Z,88.18
2022-09-23T04:59:13.100Z,88.08
2022-09-23T05:00:13.262Z,88.29
2022-09-23T05:01:13.505Z,88.29
2022-09-23T05:02:13.706Z,88.29
2022-09-23T05:03:12.837Z,88.29
2022-09-23T05:04:13.097Z,88.29
2022-09-23T05:05:13.278Z,88.53
2022-09-23T05:06:13.466Z,88.64
2022-09-23T05:07:12.653Z,88.74
2022-09-23T05:08:12.852Z,88.74
2022-09-23T05:09:13.038Z,88.84
2022-09-23T05:10:13.252Z,88.95
2022-09-23T05:11:13.465Z,88.74
2022-09-23T05:12:12.600Z,88.64
2022-09-23T05:13:12.805Z,88.64
2022-09-23T05:14:13.019Z,88.64
2022-09-23T05:15:13.238Z,88.64
2022-09-23T05:16:13.497Z,88.84
2022-09-23T05:17:12.596Z,88.84
2022-09-23T05:18:12.797Z,88.95
2022-09-23T05:19:12.992Z,88.95
2022-09-23T05:20:13.201Z,88.95
2022-09-23T05:21:13.400Z,88.84
2022-09-23T05:22:12.554Z,88.84
2022-09-23T05:23:12.810Z,88.95
2022-09-23T05:24:12.960Z,88.95
2022-09-23T05:25:13.158Z,88.95
2022-09-23T05:26:13.344Z,88.95
2022-09-23T05:27:12.493Z,88.84
2022-09-23T05:28:12.711Z,88.84
2022-09-23T05:29:13.012Z,88.84
2022-09-23T05:30:13.120Z,88.84
2022-09-23T05:31:18.697Z,89.05
2022-09-23T05:32:13.400Z,89.25
2022-09-23T05:33:12.616Z,89.36
2022-09-23T05:34:12.814Z,89.46
2022-09-23T05:35:13.159Z,89.25
2022-09-23T05:36:12.265Z,89.15
2022-09-23T05:37:12.381Z,89.15
2022-09-23T05:38:12.579Z,89.05
2022-09-23T05:39:12.777Z,88.95
2022-09-23T05:40:13.012Z,88.95
2022-09-23T05:41:12.201Z,89.05
2022-09-23T05:42:13.431Z,89.05
2022-09-23T05:43:12.619Z,89.15
2022-09-23T05:44:12.822Z,89.25
2022-09-23T05:45:13.037Z,89.25
2022-09-23T05:46:12.321Z,89.05
2022-09-23T05:47:12.450Z,89.05
2022-09-23T05:48:12.635Z,89.05
2022-09-23T05:49:12.911Z,89.05
2022-09-23T05:50:11.978Z,89.05
2022-09-23T05:51:12.307Z,89.05
2022-09-23T05:52:12.392Z,89.15
2022-09-23T05:53:12.580Z,89.15
2022-09-23T05:54:12.780Z,89.15
2022-09-23T05:55:11.942Z,89.15
2022-09-23T05:56:12.152Z,89.15
2022-09-23T05:57:12.410Z,89.05
2022-09-23T05:58:12.531Z,89.15
2022-09-23T05:59:12.740Z,89.15
2022-09-23T06:00:11.908Z,89.25
2022-09-23T06:01:12.121Z,89.46
2022-09-23T06:02:12.384Z,89.46
2022-09-23T06:03:12.651Z,89.46
2022-09-23T06:04:11.704Z,89.56
2022-09-23T06:05:14.993Z,89.67
2022-09-23T06:06:12.103Z,89.77
2022-09-23T06:07:12.285Z,89.67
2022-09-23T06:08:12.471Z,89.56
2022-09-23T06:09:11.662Z,89.52
2022-09-23T06:10:12.858Z,89.42
2022-09-23T06:11:12.013Z,89.42
2022-09-23T06:12:12.213Z,89.42
2022-09-23T06:13:12.405Z,89.22
2022-09-23T06:14:12.606Z,89.22
2022-09-23T06:15:11.745Z,89.11
2022-09-23T06:16:11.981Z,89.01
2022-09-23T06:17:12.128Z,88.80
2022-09-23T06:18:12.319Z,88.80
2022-09-23T06:19:14.634Z,88.66
2022-09-23T06:20:11.685Z,88.66
2022-09-23T06:21:11.875Z,88.56
2022-09-23T06:22:12.064Z,88.45
2022-09-23T06:23:12.271Z,88.45
2022-09-23T06:24:17.602Z,88.35
2022-09-23T06:25:12.679Z,88.35
2022-09-23T06:26:11.824Z,88.35
2022-09-23T06:27:12.015Z,88.35
2022-09-23T06:28:12.225Z,88.35
2022-09-23T06:29:13.422Z,88.35
2022-09-23T06:30:11.538Z,88.20
2022-09-23T06:31:13.744Z,88.10
2022-09-23T06:32:11.927Z,88.10
2022-09-23T06:33:12.109Z,88.10
2022-09-23T06:34:13.776Z,88.00
2022-09-23T06:35:22.774Z,88.00
2022-09-23T06:36:13.457Z,88.00
2022-09-23T06:37:20.226Z,87.90
2022-09-23T06:38:12.985Z,88.00
2022-09-23T06:39:12.184Z,88.00
2022-09-23T06:40:11.393Z,87.85
2022-09-23T06:41:11.525Z,87.75
2022-09-23T06:42:11.857Z,87.75
2022-09-23T06:43:11.924Z,87.65
2022-09-23T06:44:12.124Z,87.45
2022-09-23T06:45:11.259Z,87.45
2022-09-23T06:46:11.508Z,87.45
2022-09-23T06:47:11.629Z,87.40
2022-09-23T06:48:11.937Z,87.30
2022-09-23T06:49:11.969Z,87.10
2022-09-23T06:50:12.127Z,86.79
2022-09-23T06:51:11.273Z,86.68
2022-09-23T06:52:11.464Z,86.58
2022-09-23T06:53:11.636Z,86.54
2022-09-23T06:54:11.958Z,86.65
2022-09-23T06:55:12.047Z,86.54
2022-09-23T06:56:12.149Z,86.65
2022-09-23T06:57:12.319Z,86.75
2022-09-23T06:58:11.437Z,86.75
2022-09-23T06:59:11.609Z,86.60
2022-09-23T07:00:11.817Z,86.50
2022-09-23T07:01:11.012Z,86.30
2022-09-23T07:02:11.348Z,85.99
2022-09-23T07:03:11.255Z,85.89
2022-09-23T07:04:11.412Z,85.78
2022-09-23T07:05:11.565Z,85.95
2022-09-23T07:06:11.783Z,85.95
2022-09-23T07:07:11.905Z,85.85
2022-09-23T07:08:11.026Z,85.64
2022-09-23T07:09:11.222Z,85.54
2022-09-23T07:10:11.397Z,85.44
2022-09-23T07:11:11.584Z,85.60
2022-09-23T07:12:11.806Z,85.39
2022-09-23T07:13:15.523Z,85.09
2022-09-23T07:14:12.098Z,85.30
2022-09-23T07:15:11.296Z,85.19
2022-09-23T07:16:11.696Z,85.09
2022-09-23T07:17:11.700Z,84.78
2022-09-23T07:18:10.886Z,84.47
2022-09-23T07:19:11.030Z,84.53
2022-09-23T07:20:11.214Z,84.12
2022-09-23T07:21:11.377Z,84.03
2022-09-23T07:22:11.535Z,84.23
2022-09-23T07:23:10.659Z,83.41
2022-09-23T07:24:10.869Z,83.37
2022-09-23T07:25:10.988Z,82.76
2022-09-23T07:26:11.162Z,82.96
2022-09-23T07:27:11.410Z,82.55
2022-09-23T07:28:11.501Z,82.00
2022-09-23T07:29:10.647Z,81.79
2022-09-23T07:30:19.284Z,81.49
2022-09-23T07:31:12.113Z,81.15
2022-09-23T07:32:15.383Z,80.94
2022-09-23T07:33:26.621Z,80.94
2022-09-23T07:34:12.497Z,80.69
2022-09-23T07:35:11.689Z,80.60
2022-09-23T07:36:10.913Z,80.49
2022-09-23T07:37:10.967Z,80.39
2022-09-23T07:38:11.126Z,80.39
2022-09-23T07:39:11.338Z,79.84
2022-09-23T07:40:10.495Z,79.13
2022-09-23T07:41:10.601Z,79.02
2022-09-23T07:42:11.295Z,78.58
2022-09-23T07:43:10.923Z,79.09
2022-09-23T07:44:11.084Z,79.19
2022-09-23T07:45:11.237Z,78.99
2022-09-23T07:46:10.462Z,78.75
2022-09-23T07:47:10.500Z,78.44
2022-09-23T07:48:10.954Z,78.23
2022-09-23T07:49:10.885Z,78.23
2022-09-23T07:50:10.948Z,77.93
2022-09-23T07:51:11.091Z,77.42
2022-09-23T07:52:11.238Z,77.22
2022-09-23T07:53:10.371Z,77.62
2022-09-23T07:54:10.759Z,77.89
2022-09-23T07:55:10.682Z,77.38
2022-09-23T07:56:10.902Z,76.46
2022-09-23T07:57:11.041Z,77.25
2022-09-23T07:58:11.150Z,76.84
2022-09-23T07:59:10.308Z,76.32
2022-09-23T08:00:10.511Z,75.57
2022-09-23T08:01:10.662Z,75.78
2022-09-23T08:02:10.775Z,75.37
2022-09-23T08:03:10.996Z,75.23
2022-09-23T08:04:11.056Z,74.93
2022-09-23T08:05:10.198Z,74.73
2022-09-23T08:06:10.491Z,73.60
2022-09-23T08:07:10.517Z,74.08
2022-09-23T08:08:10.649Z,73.16
2022-09-23T08:09:10.819Z,73.67
2022-09-23T08:10:10.983Z,73.67
2022-09-23T08:11:11.061Z,73.43
2022-09-23T08:12:15.209Z,73.64
2022-09-23T08:13:11.432Z,73.23
2022-09-23T08:14:10.626Z,73.54
2022-09-23T08:15:10.773Z,73.23
2022-09-23T08:16:10.955Z,73.13
2022-09-23T08:17:10.046Z,73.60
2022-09-23T08:18:10.239Z,74.11
2022-09-23T08:19:10.349Z,74.52
2022-09-23T08:20:10.503Z,73.16
2022-09-23T08:21:10.658Z,73.47
2022-09-23T08:22:10.789Z,73.16
2022-09-23T08:23:09.879Z,72.92
2022-09-23T08:24:10.253Z,71.50
2022-09-23T08:25:10.358Z,71.60
2022-09-23T08:26:19.439Z,71.60
2022-09-23T08:27:11.417Z,70.58
2022-09-23T08:28:10.536Z,69.97
2022-09-23T08:29:10.680Z,70.25
2022-09-23T08:30:16.952Z,70.45
2022-09-23T08:31:09.914Z,69.84
2022-09-23T08:32:10.005Z,69.53
2022-09-23T08:33:10.134Z,69.53
2022-09-23T08:34:10.310Z,70.96
2022-09-23T08:35:10.420Z,71.97
2022-09-23T08:36:10.513Z,70.25
2022-09-23T08:37:10.642Z,74.28
2022-09-23T08:38:09.734Z,71.33
2022-09-23T08:39:09.859Z,70.28
2022-09-23T08:40:10.038Z,70.59
2022-09-23T08:41:10.100Z,70.89
2022-09-23T08:42:10.160Z,70.48
2022-09-23T08:43:10.294Z,70.18
2022-09-23T08:44:10.402Z,69.87
2022-09-23T08:45:10.525Z,70.99
2022-09-23T08:46:09.612Z,71.06
2022-09-23T08:47:09.763Z,70.96
2022-09-23T08:48:12.960Z,71.26
2022-09-23T08:49:09.996Z,70.35
2022-09-23T08:50:11.130Z,67.71
2022-09-23T08:51:10.175Z,68.93
2022-09-23T08:52:10.377Z,69.40
2022-09-23T08:53:10.463Z,69.60
2022-09-23T08:54:09.509Z,70.62
2022-09-23T08:55:09.615Z,70.62
2022-09-23T08:56:09.740Z,69.40
2022-09-23T08:57:09.867Z,69.20
2022-09-23T08:58:26.396Z,68.87
2022-09-23T08:59:11.062Z,69.57
2022-09-23T09:00:10.261Z,69.27
2022-09-23T09:01:10.376Z,68.76
2022-09-23T09:02:09.507Z,68.96
2022-09-23T09:03:10.962Z,69.17
2022-09-23T09:04:12.644Z,68.26
2022-09-23T09:05:09.834Z,69.17
2022-09-23T09:06:09.966Z,68.87
2022-09-23T09:07:35.185Z,69.47
2022-09-23T09:08:11.260Z,69.27
2022-09-23T09:09:09.429Z,68.96
2022-09-23T09:10:11.574Z,68.15
2022-09-23T09:11:09.617Z,68.15
2022-09-23T09:12:09.754Z,68.87
2022-09-23T09:13:10.901Z,69.57
2022-09-23T09:14:09.996Z,70.08
2022-09-23T09:15:10.134Z,70.45
2022-09-23T09:16:09.234Z,70.05
2022-09-23T09:17:09.330Z,69.95
2022-09-23T09:18:09.436Z,68.12
2022-09-23T09:19:09.678Z,68.83
2022-09-23T09:20:09.721Z,69.24
2022-09-23T09:21:09.830Z,67.92
2022-09-23T09:22:09.979Z,67.72
2022-09-23T09:23:09.076Z,69.03
2022-09-23T09:24:09.261Z,69.24
2022-09-23T09:25:09.447Z,69.64
2022-09-23T09:26:09.418Z,68.32
2022-09-23T09:27:09.502Z,69.64
2022-09-23T09:28:09.632Z,69.54
2022-09-23T09:29:23.881Z,69.03
2022-09-23T09:30:10.887Z,68.12
2022-09-23T09:31:09.981Z,69.64
2022-09-23T09:32:09.050Z,70.05
2022-09-23T09:33:09.172Z,67.82
2022-09-23T09:34:09.289Z,68.63
2022-09-23T09:35:09.390Z,68.02
2022-09-23T09:36:09.571Z,68.83
2022-09-23T09:37:09.606Z,69.03
2022-09-23T09:38:10.761Z,68.73
2022-09-23T09:39:11.937Z,68.52
2022-09-23T09:40:13.120Z,69.71
2022-09-23T09:41:09.013Z,69.24
2022-09-23T09:42:09.320Z,69.81
2022-09-23T09:43:09.236Z,68.52
2022-09-23T09:44:09.352Z,68.73
2022-09-23T09:45:09.450Z,68.90
2022-09-23T09:46:09.582Z,69.81
2022-09-23T09:47:09.736Z,69.00
2022-09-23T09:48:09.783Z,69.81
2022-09-23T09:49:08.914Z,69.41
2022-09-23T09:50:08.954Z,68.49
2022-09-23T09:51:09.067Z,68.90
2022-09-23T09:52:10.722Z,69.10
2022-09-23T09:53:09.298Z,68.29
2022-09-23T09:54:09.379Z,69.41
2022-09-23T09:55:09.491Z,69.81
2022-09-23T09:56:08.562Z,69.20
2022-09-23T09:57:10.672Z,68.49
2022-09-23T09:58:08.807Z,68.70
2022-09-23T09:59:08.973Z,68.80
2022-09-23T10:00:09.077Z,70.08
2022-09-23T10:01:09.312Z,69.48
2022-09-23T10:02:09.288Z,69.07
2022-09-23T10:03:09.407Z,68.46
2022-09-23T10:04:08.571Z,68.66
2022-09-23T10:05:08.980Z,68.46
2022-09-23T10:06:08.736Z,68.13
2022-09-23T10:07:08.874Z,70.05
2022-09-23T10:08:09.008Z,69.54
2022-09-23T10:09:09.116Z,69.34
2022-09-23T10:10:22.180Z,68.73
2022-09-23T10:11:10.363Z,67.93
2022-09-23T10:12:08.405Z,67.72
2022-09-23T10:13:09.558Z,68.13
2022-09-23T10:14:08.647Z,67.22
2022-09-23T10:15:08.773Z,67.49
2022-09-23T10:16:08.857Z,67.79
2022-09-23T10:17:08.998Z,67.99
2022-09-23T10:18:10.023Z,68.19
2022-09-23T10:19:09.251Z,66.38
2022-09-23T10:20:09.611Z,66.85
2022-09-23T10:21:09.366Z,67.35
2022-09-23T10:22:09.435Z,67.76
2022-09-23T10:23:08.543Z,68.06
2022-09-23T10:24:08.651Z,67.35
2022-09-23T10:25:08.717Z,66.85
2022-09-23T10:26:08.863Z,66.82
2022-09-23T10:27:08.916Z,66.92
2022-09-23T10:28:09.106Z,66.11
2022-09-23T10:29:09.169Z,66.01
2022-09-23T10:30:09.282Z,65.81
2022-09-23T10:31:08.393Z,65.47
2022-09-23T10:32:08.503Z,64.67
2022-09-23T10:33:08.569Z,66.18
2022-09-23T10:34:08.686Z,65.98
2022-09-23T10:35:08.805Z,63.93
2022-09-23T10:36:08.880Z,63.82
2022-09-23T10:37:09.007Z,64.94
2022-09-23T10:38:09.091Z,64.13
2022-09-23T10:39:09.161Z,63.42
2022-09-23T10:40:10.337Z,62.59
2022-09-23T10:42:10.542Z,63.46
2022-09-23T10:43:09.615Z,63.87
2022-09-23T10:44:08.659Z,63.46
2022-09-23T10:45:08.699Z,63.13
2022-09-23T10:46:08.841Z,61.11
2022-09-23T10:47:08.880Z,60.71
2022-09-23T10:48:09.012Z,60.81
2022-09-23T10:49:09.084Z,61.52
2022-09-23T10:50:09.139Z,62.22
2022-09-23T10:51:08.184Z,63.13
2022-09-23T10:52:08.310Z,62.52
2022-09-23T10:53:08.395Z,61.89
2022-09-23T10:54:08.489Z,61.29
2022-09-23T10:55:08.564Z,59.67
2022-09-23T10:56:08.679Z,56.17
2022-09-23T10:57:08.757Z,54.96
2022-09-23T10:58:07.817Z,54.56
2022-09-23T10:59:08.956Z,56.17
2022-09-23T11:00:09.072Z,57.15
2022-09-23T11:01:08.141Z,58.06
2022-09-23T11:02:08.196Z,58.67
2022-09-23T11:03:09.342Z,58.16
2022-09-23T11:04:08.977Z,57.25
2022-09-23T11:05:08.580Z,57.65
2022-09-23T11:06:08.535Z,57.86
2022-09-23T11:07:09.617Z,55.24
2022-09-23T11:08:08.666Z,55.64
2022-09-23T11:09:09.750Z,55.51
2022-09-23T11:10:18.491Z,55.11
2022-09-23T11:11:08.800Z,54.61
2022-09-23T11:12:08.906Z,54.81
2022-09-23T11:13:07.964Z,55.51
2022-09-23T11:14:08.255Z,53.98
2022-09-23T11:15:08.158Z,53.27
2022-09-23T11:16:09.311Z,51.56
2022-09-23T11:17:08.491Z,53.07
2022-09-23T11:18:08.444Z,51.56
2022-09-23T11:19:09.546Z,52.14
2022-09-23T11:20:09.654Z,52.04
2022-09-23T11:21:08.733Z,50.53
2022-09-23T11:22:13.877Z,51.64
2022-09-23T11:23:09.876Z,50.73
2022-09-23T11:24:08.043Z,51.14
2022-09-23T11:25:09.035Z,53.34
2022-09-23T11:26:11.180Z,53.75
2022-09-23T11:27:08.140Z,54.96
2022-09-23T11:28:08.237Z,54.03
2022-09-23T11:29:08.367Z,53.12
2022-09-23T11:30:07.352Z,52.51
2022-09-23T11:31:09.520Z,52.42
2022-09-23T11:32:08.565Z,51.91
2022-09-23T11:33:08.671Z,53.42
2022-09-23T11:34:08.804Z,52.82
2022-09-23T11:35:08.785Z,52.11
2022-09-23T11:36:08.877Z,53.52
2022-09-23T11:37:09.008Z,52.54
2022-09-23T11:38:08.041Z,52.74
2022-09-23T11:39:08.188Z,52.94
2022-09-23T11:40:07.252Z,53.95
2022-09-23T11:41:09.371Z,53.42
2022-09-23T11:42:08.431Z,53.83
2022-09-23T11:43:08.499Z,54.43
2022-09-23T11:44:07.640Z,53.90
2022-09-23T11:45:07.781Z,53.30
2022-09-23T11:46:07.746Z,54.78
2022-09-23T11:47:08.809Z,53.77
2022-09-23T11:48:09.955Z,53.57
2022-09-23T11:49:07.964Z,52.24
2022-09-23T11:50:08.109Z,52.14
2022-09-23T11:51:08.149Z,53.65
2022-09-23T11:52:08.230Z,53.95
2022-09-23T11:53:08.342Z,54.02
2022-09-23T11:54:08.401Z,53.42
2022-09-23T11:55:17.913Z,53.82
2022-09-23T11:56:08.569Z,53.02
2022-09-23T11:57:09.630Z,52.24
2022-09-23T11:58:19.139Z,50.46
2022-09-23T11:59:09.086Z,50.05
2022-09-23T12:00:07.893Z,51.09
2022-09-23T12:01:09.048Z,51.68
2022-09-23T12:02:17.357Z,53.90
2022-09-23T12:03:08.247Z,54.08
2022-09-23T12:04:19.061Z,52.67
2022-09-23T12:05:08.387Z,50.96
2022-09-23T12:06:08.404Z,48.75
2022-09-23T12:07:08.875Z,48.44
2022-09-23T12:08:08.618Z,48.95
2022-09-23T12:09:08.696Z,49.85
2022-09-23T12:10:09.808Z,51.86
2022-09-23T12:11:09.898Z,50.33
2022-09-23T12:12:07.904Z,49.63
2022-09-23T12:13:08.055Z,49.33
2022-09-23T12:14:07.157Z,48.22
2022-09-23T12:15:09.198Z,49.30
2022-09-23T12:16:08.251Z,50.11
2022-09-23T12:17:07.326Z,50.41
2022-09-23T12:18:08.395Z,50.81
2022-09-23T12:19:07.420Z,51.01
2022-09-23T12:20:09.576Z,51.42
2022-09-23T12:21:08.579Z,51.61
2022-09-23T12:22:08.638Z,51.21
2022-09-23T12:23:07.706Z,49.51
2022-09-23T12:24:07.855Z,49.91
2022-09-23T12:25:08.840Z,49.80
2022-09-23T12:26:07.903Z,50.11
2022-09-23T12:27:07.941Z,49.30
2022-09-23T12:28:08.012Z,49.53
2022-09-23T12:29:09.223Z,51.14
2022-09-23T12:30:09.220Z,52.44
2022-09-23T12:31:08.347Z,50.13
2022-09-23T12:32:09.405Z,49.73
2022-09-23T12:33:07.408Z,51.16
2022-09-23T12:34:09.583Z,50.86
2022-09-23T12:35:08.612Z,50.53
2022-09-23T12:36:08.712Z,50.03
2022-09-23T12:37:08.772Z,49.43
2022-09-23T12:38:09.898Z,49.73
2022-09-23T12:39:08.947Z,46.92
2022-09-23T12:40:10.171Z,48.55
2022-09-23T12:41:09.097Z,48.44
2022-09-23T12:42:09.180Z,46.34
2022-09-23T12:43:09.269Z,47.64
2022-09-23T12:44:10.464Z,48.02
2022-09-23T12:45:08.455Z,48.22
2022-09-23T12:46:09.653Z,48.12
2022-09-23T12:47:08.575Z,47.30
2022-09-23T12:48:10.647Z,49.40
2022-09-23T12:49:08.831Z,50.99
2022-09-23T12:50:14.491Z,52.59
2022-09-23T12:51:07.933Z,52.49
2022-09-23T12:52:10.100Z,52.09
2022-09-23T12:53:08.070Z,53.70